Time;durP1;ratioP1;P1;durP2;ratioP2;P2;SDS_P1;SDS_P2;PMS_P1;PMS_P2;Temp;Humidity;BMP_temperature;BMP_pressure;BME280_temperature;BME280_humidity;BME280_pressure;Samples;Min_cycle;Max_cycle;Signal;HPM_P1;HPM_P2
2023/07/18 00:02:16;;;;;;;0.50;0.50;;;15.60;99.90;;;;;;5050237;28;20712;-68
2023/07/18 00:05:21;;;;;;;0.65;0.65;;;15.70;99.90;;;;;;5070395;28;20309;-68
2023/07/18 00:08:24;;;;;;;0.50;0.50;;;15.80;99.90;;;;;;5030625;28;20202;-68
2023/07/18 00:11:27;;;;;;;0.50;0.50;;;15.80;99.90;;;;;;5030817;28;20225;-67
2023/07/18 00:14:31;;;;;;;0.30;0.30;;;15.60;99.90;;;;;;5029273;28;20216;-68
2023/07/18 00:17:34;;;;;;;0.52;0.40;;;15.60;99.90;;;;;;5030890;28;20209;-68
2023/07/18 00:20:37;;;;;;;0.30;0.30;;;15.50;99.90;;;;;;5029289;28;20209;-68
2023/07/18 00:23:40;;;;;;;0.65;0.65;;;15.30;99.90;;;;;;5030196;28;20202;-67
2023/07/18 00:26:43;;;;;;;0.30;0.30;;;15.20;99.90;;;;;;5030476;28;20280;-68
2023/07/18 00:29:46;;;;;;;0.30;0.30;;;15.10;99.90;;;;;;5030150;28;20209;-68
2023/07/18 00:32:50;;;;;;;0.30;0.30;;;14.90;99.90;;;;;;5028916;28;20256;-68
2023/07/18 00:35:53;;;;;;;1.92;1.23;;;14.80;99.90;;;;;;5030160;28;20201;-68
2023/07/18 00:38:56;;;;;;;0.30;0.30;;;14.80;99.90;;;;;;5030255;28;20221;-69
2023/07/18 00:42:00;;;;;;;1.85;0.82;;;14.80;99.90;;;;;;5048062;28;20204;-69
2023/07/18 00:45:03;;;;;;;0.38;0.38;;;14.80;99.90;;;;;;5049741;28;20220;-68
2023/07/18 00:48:07;;;;;;;0.30;0.30;;;14.80;99.90;;;;;;5049667;28;20220;-69
2023/07/18 00:51:10;;;;;;;0.50;0.50;;;14.70;99.90;;;;;;5046291;28;20653;-67
2023/07/18 00:54:13;;;;;;;0.40;0.40;;;14.70;99.90;;;;;;5029844;28;20705;-67
2023/07/18 00:57:16;;;;;;;0.20;0.20;;;14.60;99.90;;;;;;5030053;28;20248;-68
2023/07/18 01:00:22;;;;;;;0.45;0.45;;;14.50;99.90;;;;;;5029677;28;20194;-68
2023/07/18 01:03:25;;;;;;;0.30;0.30;;;14.60;99.90;;;;;;5039460;28;20251;-68
2023/07/18 01:06:28;;;;;;;0.20;0.20;;;14.60;99.90;;;;;;5050264;28;20193;-67
2023/07/18 01:09:32;;;;;;;0.52;0.52;;;14.60;99.90;;;;;;5053853;28;20193;-69
2023/07/18 01:12:35;;;;;;;1.52;0.73;;;14.50;99.90;;;;;;5052410;28;20698;-66
2023/07/18 01:15:38;;;;;;;1.75;0.93;;;14.50;99.90;;;;;;5052591;28;20502;-67
2023/07/18 01:18:48;;;;;;;0.43;0.40;;;14.50;99.90;;;;;;5054513;28;20212;-68
2023/07/18 01:21:52;;;;;;;0.40;0.40;;;14.40;99.90;;;;;;5035331;28;20578;-73
2023/07/18 01:24:55;;;;;;;0.43;0.43;;;14.40;99.90;;;;;;5032642;28;20205;-72
2023/07/18 01:27:59;;;;;;;0.93;0.93;;;14.20;99.90;;;;;;5032103;28;20672;-72
2023/07/18 01:31:02;;;;;;;0.40;0.40;;;14.10;99.90;;;;;;5032483;28;20206;-73
2023/07/18 01:34:05;;;;;;;2.42;0.93;;;14.30;99.90;;;;;;5033705;28;20193;-72
2023/07/18 01:37:08;;;;;;;0.30;0.30;;;14.40;99.90;;;;;;5043376;28;20201;-72
2023/07/18 01:40:12;;;;;;;0.30;0.30;;;14.40;99.90;;;;;;5052134;28;20563;-72
2023/07/18 01:43:15;;;;;;;0.47;0.47;;;14.40;99.90;;;;;;5053441;28;20209;-73
2023/07/18 01:46:18;;;;;;;0.40;0.40;;;14.30;99.90;;;;;;5052723;28;20663;-72
2023/07/18 01:49:22;;;;;;;0.30;0.30;;;14.20;99.90;;;;;;5053496;28;20204;-71
2023/07/18 01:52:25;;;;;;;0.22;0.22;;;14.10;99.90;;;;;;5053968;28;20517;-72
2023/07/18 01:55:28;;;;;;;0.30;0.30;;;14.00;99.90;;;;;;5053151;28;20226;-72
2023/07/18 01:58:32;;;;;;;0.40;0.40;;;13.80;99.90;;;;;;5054083;28;20556;-72
2023/07/18 02:01:35;;;;;;;0.32;0.32;;;13.70;99.90;;;;;;5052964;28;20270;-73
2023/07/18 02:04:38;;;;;;;0.30;0.30;;;13.60;99.90;;;;;;5052853;28;20193;-72
2023/07/18 02:07:41;;;;;;;0.30;0.30;;;13.30;99.90;;;;;;5053146;28;20494;-72
2023/07/18 02:10:44;;;;;;;0.47;0.47;;;13.40;99.90;;;;;;5053013;28;20284;-72
2023/07/18 02:13:47;;;;;;;0.50;0.50;;;13.40;99.90;;;;;;5052827;28;20197;-73
2023/07/18 02:16:50;;;;;;;0.60;0.60;;;13.50;99.90;;;;;;5040134;28;20225;-74
2023/07/18 02:19:54;;;;;;;0.30;0.30;;;13.70;99.90;;;;;;5031165;28;20209;-73
2023/07/18 02:23:00;;;;;;;0.30;0.30;;;13.90;99.90;;;;;;5032481;28;20237;-73
2023/07/18 02:26:04;;;;;;;0.68;0.68;;;14.00;99.90;;;;;;5032733;28;20203;-73
2023/07/18 02:29:06;;;;;;;2.17;0.75;;;13.80;99.90;;;;;;5032546;28;20194;-73
2023/07/18 02:32:10;;;;;;;0.30;0.30;;;13.70;99.90;;;;;;5032221;28;20197;-74
2023/07/18 02:35:17;;;;;;;0.30;0.30;;;13.60;99.90;;;;;;5032309;28;20671;-72
2023/07/18 02:38:20;;;;;;;0.30;0.30;;;13.60;99.90;;;;;;5032665;28;20562;-72
2023/07/18 02:41:23;;;;;;;0.40;0.40;;;13.50;99.90;;;;;;5032411;28;20210;-72
2023/07/18 02:44:27;;;;;;;0.60;0.60;;;13.40;99.90;;;;;;5040620;28;20625;-73
2023/07/18 02:47:30;;;;;;;0.45;0.45;;;13.20;99.90;;;;;;5052251;28;20625;-72
2023/07/18 02:50:33;;;;;;;0.40;0.40;;;13.10;99.90;;;;;;5052337;28;20197;-74
2023/07/18 02:53:36;;;;;;;0.40;0.40;;;13.20;99.90;;;;;;5052137;28;20259;-73
2023/07/18 02:56:39;;;;;;;0.40;0.40;;;13.40;99.90;;;;;;5050984;28;20588;-74
2023/07/18 02:59:42;;;;;;;0.38;0.38;;;13.50;99.90;;;;;;5051916;28;20635;-74
2023/07/18 03:02:46;;;;;;;0.32;0.32;;;13.60;99.90;;;;;;5040775;28;20308;-74
2023/07/18 03:05:49;;;;;;;0.43;0.43;;;13.60;99.90;;;;;;5031602;28;20281;-73
2023/07/18 03:08:52;;;;;;;0.30;0.30;;;13.80;99.90;;;;;;5031660;28;20256;-73
2023/07/18 03:11:55;;;;;;;0.80;0.60;;;14.00;99.90;;;;;;5031029;28;20571;-73
2023/07/18 03:14:58;;;;;;;0.60;0.60;;;14.10;99.90;;;;;;5030303;28;20595;-73
2023/07/18 03:18:01;;;;;;;0.47;0.47;;;14.10;99.90;;;;;;5031807;28;20222;-73
2023/07/18 03:21:04;;;;;;;0.32;0.32;;;14.00;99.90;;;;;;5030933;28;20210;-73
2023/07/18 03:24:08;;;;;;;0.30;0.30;;;14.10;99.90;;;;;;5030460;28;20202;-73
2023/07/18 03:27:14;;;;;;;0.30;0.30;;;14.20;99.90;;;;;;5030591;28;20201;-74
2023/07/18 03:30:18;;;;;;;0.50;0.50;;;14.30;99.90;;;;;;5047008;28;20205;-73
2023/07/18 03:33:21;;;;;;;0.22;0.22;;;14.40;99.90;;;;;;5051553;28;20197;-73
2023/07/18 03:36:24;;;;;;;0.40;0.40;;;14.50;99.90;;;;;;5049847;28;20271;-74
2023/07/18 03:39:28;;;;;;;0.65;0.65;;;14.70;99.90;;;;;;5051323;28;20562;-73
2023/07/18 03:42:31;;;;;;;0.30;0.30;;;14.70;99.90;;;;;;5031261;28;20256;-73
2023/07/18 03:45:33;;;;;;;0.40;0.40;;;14.70;99.90;;;;;;5031065;28;20642;-73
2023/07/18 03:48:40;;;;;;;0.30;0.30;;;14.80;99.90;;;;;;5031399;28;20185;-74
2023/07/18 03:51:43;;;;;;;0.25;0.25;;;14.90;99.90;;;;;;5037247;28;20197;-74
2023/07/18 03:54:46;;;;;;;0.40;0.40;;;15.00;99.90;;;;;;5051310;28;20283;-73
2023/07/18 03:57:49;;;;;;;0.30;0.30;;;15.10;99.90;;;;;;5051221;28;20283;-73
2023/07/18 04:00:52;;;;;;;0.43;0.43;;;15.00;99.90;;;;;;5051040;28;20319;-73
2023/07/18 04:03:55;;;;;;;0.40;0.40;;;15.00;99.90;;;;;;5064694;28;20406;-72
2023/07/18 04:06:58;;;;;;;0.30;0.30;;;15.10;99.90;;;;;;5070744;28;20196;-73
2023/07/18 04:10:01;;;;;;;0.30;0.30;;;15.20;99.90;;;;;;5052093;28;20205;-72
2023/07/18 04:13:04;;;;;;;0.30;0.30;;;15.00;99.90;;;;;;5049468;28;20215;-73
2023/07/18 04:16:07;;;;;;;0.32;0.32;;;14.90;99.90;;;;;;5050679;28;20613;-73
2023/07/18 04:19:10;;;;;;;0.20;0.20;;;14.90;99.90;;;;;;5050713;28;20197;-72
2023/07/18 04:22:14;;;;;;;0.40;0.40;;;14.70;99.90;;;;;;5049363;28;20242;-72
2023/07/18 04:25:17;;;;;;;0.30;0.30;;;14.90;99.90;;;;;;5049180;28;20206;-72
2023/07/18 04:28:20;;;;;;;0.40;0.40;;;15.10;99.90;;;;;;5050793;28;20189;-74
2023/07/18 04:31:23;;;;;;;0.30;0.30;;;15.30;99.90;;;;;;5050947;28;20197;-73
2023/07/18 04:34:26;;;;;;;0.35;0.35;;;15.50;99.90;;;;;;5050917;28;20229;-73
2023/07/18 04:37:29;;;;;;;0.30;0.30;;;15.50;99.90;;;;;;5037327;28;20201;-72
2023/07/18 04:40:33;;;;;;;0.30;0.30;;;15.50;99.90;;;;;;5029416;28;20225;-72
2023/07/18 04:43:36;;;;;;;0.40;0.40;;;15.50;99.90;;;;;;5029685;28;20213;-72
2023/07/18 04:46:39;;;;;;;0.30;0.30;;;15.60;99.90;;;;;;5034776;28;20684;-74
2023/07/18 04:49:42;;;;;;;0.30;0.30;;;15.60;99.90;;;;;;5033583;28;20212;-74
2023/07/18 04:52:45;;;;;;;0.28;0.28;;;15.50;99.90;;;;;;5034518;28;20205;-74
2023/07/18 04:55:49;;;;;;;0.40;0.40;;;15.50;99.90;;;;;;5040563;28;20209;-74
2023/07/18 04:58:52;;;;;;;0.38;0.38;;;15.50;99.90;;;;;;5053022;28;20201;-74
2023/07/18 05:01:56;;;;;;;0.30;0.30;;;15.70;99.90;;;;;;5052598;28;20232;-74
2023/07/18 05:04:59;;;;;;;0.30;0.30;;;15.80;99.90;;;;;;5053771;28;20208;-74
2023/07/18 05:08:03;;;;;;;0.30;0.30;;;15.70;99.90;;;;;;5053991;28;20656;-73
2023/07/18 05:11:06;;;;;;;0.50;0.50;;;15.60;99.90;;;;;;5053823;28;20197;-73
2023/07/18 05:14:09;;;;;;;0.88;0.52;;;15.70;99.90;;;;;;5053857;28;20703;-74
2023/07/18 05:17:15;;;;;;;0.38;0.38;;;16.00;99.90;;;;;;5052536;28;20201;-73
2023/07/18 05:20:20;;;;;;;0.30;0.30;;;16.20;99.90;;;;;;5052439;28;20660;-73
2023/07/18 05:23:23;;;;;;;0.30;0.30;;;16.20;99.90;;;;;;5052387;28;20271;-74
2023/07/18 05:26:26;;;;;;;0.20;0.20;;;16.00;99.90;;;;;;5053811;28;20195;-74
2023/07/18 05:29:29;;;;;;;0.20;0.20;;;16.00;99.90;;;;;;5053174;28;20281;-73
2023/07/18 05:32:32;;;;;;;0.35;0.35;;;16.10;99.90;;;;;;5053646;28;20680;-73
2023/07/18 05:35:35;;;;;;;0.30;0.30;;;16.10;99.90;;;;;;5053559;28;20269;-72
2023/07/18 05:38:39;;;;;;;0.38;0.38;;;16.10;99.90;;;;;;5052296;28;20240;-72
2023/07/18 05:41:04;;;;;;;0.30;0.30;;;16.00;99.90;;;;;;5052135;28;20213;-74
2023/07/18 05:43:30;;;;;;;0.35;0.35;;;15.90;99.90;;;;;;5053016;28;20197;-73
2023/07/18 05:45:56;;;;;;;0.30;0.30;;;16.10;99.90;;;;;;5053445;28;20251;-73
2023/07/18 05:48:22;;;;;;;0.55;0.55;;;16.20;99.90;;;;;;5053000;28;20623;-73
2023/07/18 05:50:48;;;;;;;0.22;0.22;;;16.30;99.90;;;;;;5052002;28;20321;-73
2023/07/18 05:53:13;;;;;;;0.30;0.30;;;16.30;99.90;;;;;;5053156;28;20327;-73
2023/07/18 05:55:39;;;;;;;0.30;0.30;;;16.50;99.90;;;;;;5052219;28;20229;-73
2023/07/18 05:58:06;;;;;;;0.30;0.30;;;16.80;99.90;;;;;;5051853;28;20672;-74
2023/07/18 06:00:32;;;;;;;0.30;0.30;;;17.20;99.90;;;;;;5044314;28;20225;-74
2023/07/18 06:02:58;;;;;;;0.30;0.30;;;17.30;99.90;;;;;;5056293;28;20257;-74
2023/07/18 06:05:23;;;;;;;0.30;0.30;;;17.20;99.90;;;;;;5072927;28;20193;-73
2023/07/18 06:07:49;;;;;;;0.22;0.22;;;17.20;99.90;;;;;;5071263;28;20227;-73
2023/07/18 06:10:15;;;;;;;0.30;0.30;;;17.20;99.90;;;;;;5071780;28;20215;-73
2023/07/18 06:12:41;;;;;;;0.40;0.40;;;17.10;99.90;;;;;;5073026;28;20270;-75
2023/07/18 06:15:07;;;;;;;0.30;0.30;;;17.20;99.90;;;;;;5072872;28;20201;-74
2023/07/18 06:17:35;;;;;;;0.35;0.35;;;17.40;99.90;;;;;;5064631;28;20668;-74
2023/07/18 06:20:03;;;;;;;0.20;0.20;;;17.50;99.90;;;;;;5051369;28;20789;-73
2023/07/18 06:22:29;;;;;;;0.65;0.60;;;17.40;99.90;;;;;;5052397;28;20232;-72
2023/07/18 06:24:55;;;;;;;0.20;0.20;;;17.50;99.90;;;;;;5052690;28;20256;-73
2023/07/18 06:27:24;;;;;;;0.30;0.30;;;17.70;99.90;;;;;;5051044;28;20193;-73
2023/07/18 06:29:50;;;;;;;0.30;0.30;;;18.00;99.90;;;;;;5036062;28;20200;-73
2023/07/18 06:32:16;;;;;;;0.20;0.20;;;17.90;99.90;;;;;;5031357;28;20557;-72
2023/07/18 06:34:43;;;;;;;0.30;0.30;;;17.70;99.90;;;;;;5032454;28;20195;-72
2023/07/18 06:37:08;;;;;;;0.30;0.30;;;17.80;99.90;;;;;;5032407;28;20834;-73
2023/07/18 06:39:35;;;;;;;0.20;0.20;;;17.80;99.90;;;;;;5035905;28;20201;-74
2023/07/18 06:42:01;;;;;;;0.20;0.20;;;17.70;99.90;;;;;;5052504;28;20704;-73
2023/07/18 06:44:27;;;;;;;0.30;0.30;;;17.50;99.90;;;;;;5051884;28;20216;-73
2023/07/18 06:46:53;;;;;;;0.20;0.20;;;17.60;99.90;;;;;;5048943;28;20576;-73
2023/07/18 06:49:20;;;;;;;0.30;0.30;;;17.60;99.90;;;;;;5031441;28;20194;-72
2023/07/18 06:51:46;;;;;;;0.20;0.20;;;17.70;99.90;;;;;;5032387;28;20198;-73
2023/07/18 06:54:11;;;;;;;0.20;0.20;;;17.90;99.90;;;;;;5032293;28;20214;-73
2023/07/18 06:56:39;;;;;;;0.25;0.25;;;17.90;99.90;;;;;;5037312;28;20236;-73
2023/07/18 06:59:04;;;;;;;0.20;0.20;;;18.10;99.90;;;;;;5052242;28;20292;-73
2023/07/18 07:01:32;;;;;;;0.20;0.20;;;18.30;99.90;;;;;;5051342;28;20779;-73
2023/07/18 07:03:58;;;;;;;0.30;0.30;;;18.30;99.90;;;;;;5071299;28;20193;-73
2023/07/18 07:06:24;;;;;;;0.30;0.30;;;18.30;99.90;;;;;;5069505;28;20197;-73
2023/07/18 07:08:50;;;;;;;0.20;0.20;;;18.50;99.90;;;;;;5071847;28;20702;-73
2023/07/18 07:11:15;;;;;;;0.20;0.20;;;18.60;99.90;;;;;;5071633;28;20671;-73
2023/07/18 07:13:41;;;;;;;0.22;0.22;;;18.60;99.90;;;;;;5064503;28;20205;-72
2023/07/18 07:16:07;;;;;;;0.30;0.30;;;18.50;99.90;;;;;;5051645;28;20190;-73
2023/07/18 07:18:33;;;;;;;0.20;0.20;;;18.80;99.90;;;;;;5051428;28;20280;-72
2023/07/18 07:21:00;;;;;;;0.20;0.20;;;18.80;99.90;;;;;;5051550;28;20230;-73
2023/07/18 07:23:25;;;;;;;0.28;0.28;;;19.00;99.90;;;;;;5051272;28;20190;-72
2023/07/18 07:25:51;;;;;;;0.28;0.28;;;19.10;99.90;;;;;;5036802;28;20213;-72
2023/07/18 07:28:17;;;;;;;0.20;0.20;;;18.90;99.90;;;;;;5030901;28;20190;-73
2023/07/18 07:30:43;;;;;;;0.20;0.20;;;18.50;99.90;;;;;;5031541;28;20190;-72
2023/07/18 07:33:08;;;;;;;0.30;0.30;;;18.70;99.90;;;;;;5031437;28;20295;-72
2023/07/18 07:35:34;;;;;;;0.30;0.30;;;19.00;99.90;;;;;;5031393;28;20201;-72
2023/07/18 07:38:00;;;;;;;0.35;0.35;;;19.50;99.90;;;;;;5051176;28;20672;-71
2023/07/18 07:40:26;;;;;;;0.22;0.22;;;19.70;99.90;;;;;;5051042;28;20664;-72
2023/07/18 07:42:51;;;;;;;0.75;0.45;;;19.70;99.90;;;;;;5051022;28;20222;-74
2023/07/18 07:45:17;;;;;;;0.20;0.20;;;20.00;99.90;;;;;;5051134;28;20190;-73
2023/07/18 07:47:43;;;;;;;0.30;0.30;;;20.20;99.90;;;;;;5051104;28;20193;-73
2023/07/18 07:50:12;;;;;;;0.30;0.30;;;20.30;99.90;;;;;;5051222;28;20201;-73
2023/07/18 07:52:38;;;;;;;0.20;0.20;;;20.50;99.90;;;;;;5047113;28;20198;-72
2023/07/18 07:55:04;;;;;;;0.30;0.30;;;20.70;99.90;;;;;;5031250;28;20220;-72
2023/07/18 07:57:30;;;;;;;0.30;0.30;;;20.50;99.90;;;;;;5030850;28;20198;-72
2023/07/18 07:59:56;;;;;;;0.20;0.20;;;20.40;99.90;;;;;;5031011;28;20206;-72
2023/07/18 08:02:22;;;;;;;0.20;0.20;;;20.50;99.90;;;;;;5042288;28;20219;-72
2023/07/18 08:04:48;;;;;;;0.50;0.40;;;20.70;99.90;;;;;;5071294;28;20220;-72
2023/07/18 08:07:14;;;;;;;0.20;0.20;;;20.40;99.90;;;;;;5068946;28;20189;-72
2023/07/18 08:09:40;;;;;;;0.30;0.30;;;20.40;99.90;;;;;;5066515;28;20201;-73
2023/07/18 08:12:07;;;;;;;0.20;0.20;;;20.20;99.90;;;;;;5042221;28;20680;-73
2023/07/18 08:14:34;;;;;;;0.20;0.20;;;20.00;99.90;;;;;;5030766;28;20197;-73
2023/07/18 08:17:01;;;;;;;0.30;0.30;;;19.80;99.90;;;;;;5032021;28;20190;-73
2023/07/18 08:19:27;;;;;;;0.20;0.20;;;19.50;99.90;;;;;;5034802;28;20276;-72
2023/07/18 08:21:53;;;;;;;0.35;0.35;;;19.20;99.90;;;;;;5034694;28;20716;-73
2023/07/18 08:24:19;;;;;;;0.30;0.30;;;19.00;99.90;;;;;;5034831;28;20542;-72
2023/07/18 08:26:45;;;;;;;0.20;0.20;;;19.30;99.90;;;;;;5033795;28;20224;-73
2023/07/18 08:29:11;;;;;;;0.20;0.20;;;19.40;99.90;;;;;;5034788;28;20429;-74
2023/07/18 08:31:37;;;;;;;0.30;0.30;;;19.30;99.90;;;;;;5035017;28;20280;-73
2023/07/18 08:34:03;;;;;;;0.20;0.20;;;18.90;99.90;;;;;;5035059;28;20196;-73
2023/07/18 08:36:30;;;;;;;0.20;0.20;;;18.90;99.90;;;;;;5049852;28;20252;-73
2023/07/18 08:38:55;;;;;;;0.15;0.15;;;19.30;99.90;;;;;;5034850;28;20194;-73
2023/07/18 08:41:21;;;;;;;0.20;0.20;;;19.80;99.90;;;;;;5034401;28;20567;-73
2023/07/18 08:43:48;;;;;;;0.17;0.17;;;20.10;99.90;;;;;;5034833;28;20194;-73
2023/07/18 08:46:15;;;;;;;0.10;0.10;;;20.60;99.90;;;;;;5049499;28;20209;-73
2023/07/18 08:48:45;;;;;;;0.32;0.32;;;20.70;99.90;;;;;;5049618;28;20225;-73
2023/07/18 08:51:12;;;;;;;0.25;0.25;;;20.90;99.90;;;;;;5034693;28;20568;-73
2023/07/18 08:53:41;;;;;;;0.20;0.20;;;21.00;99.90;;;;;;5033288;28;20213;-73
2023/07/18 08:56:10;;;;;;;0.20;0.20;;;21.20;99.90;;;;;;5034599;28;20194;-73
2023/07/18 08:58:37;;;;;;;0.20;0.20;;;21.20;99.90;;;;;;5034314;28;20471;-74
2023/07/18 09:01:08;;;;;;;0.20;0.20;;;21.40;99.90;;;;;;5033953;28;20597;-73
2023/07/18 09:03:34;;;;;;;0.20;0.20;;;21.50;99.90;;;;;;5065097;28;20698;-73
2023/07/18 09:06:17;;;;;;;0.20;0.20;;;21.70;99.90;;;;;;5067061;28;20209;-73
2023/07/18 09:08:43;;;;;;;0.10;0.10;;;21.80;99.90;;;;;;5053936;28;20185;-73
2023/07/18 09:11:12;;;;;;;3.20;0.63;;;21.70;99.90;;;;;;5052491;28;20354;-74
2023/07/18 09:13:39;;;;;;;0.20;0.20;;;21.70;99.90;;;;;;5052633;28;20620;-75
2023/07/18 09:16:33;;;;;;;0.30;0.30;;;21.90;99.90;;;;;;5052890;28;20424;-74
2023/07/18 09:18:58;;;;;;;0.10;0.10;;;22.30;99.90;;;;;;5033015;28;20685;-74
2023/07/18 09:21:24;;;;;;;0.68;0.38;;;22.20;99.90;;;;;;5033936;28;20202;-74
2023/07/18 09:23:51;;;;;;;0.25;0.25;;;22.00;99.90;;;;;;5033851;28;20194;-73
2023/07/18 09:26:20;;;;;;;0.28;0.28;;;21.70;99.90;;;;;;5033780;28;20827;-73
2023/07/18 09:28:47;;;;;;;0.25;0.25;;;21.90;99.90;;;;;;5040290;28;20193;-73
2023/07/18 09:31:24;;;;;;;0.20;0.20;;;21.90;99.90;;;;;;5053712;28;20198;-72
2023/07/18 09:33:52;;;;;;;0.63;0.55;;;22.00;99.90;;;;;;5053813;28;20204;-73
2023/07/18 09:36:20;;;;;;;0.20;0.20;;;21.90;99.90;;;;;;5053515;28;20272;-73
2023/07/18 09:38:48;;;;;;;3.40;1.08;;;22.00;99.90;;;;;;5052274;28;20201;-73
2023/07/18 09:41:19;;;;;;;0.20;0.20;;;22.10;99.90;;;;;;5053265;28;20212;-73
2023/07/18 09:43:45;;;;;;;0.20;0.20;;;22.30;99.90;;;;;;5053547;28;20260;-73
2023/07/18 09:46:13;;;;;;;0.20;0.20;;;22.60;99.90;;;;;;5053223;28;20533;-72
2023/07/18 09:48:40;;;;;;;0.20;0.20;;;23.00;99.90;;;;;;5053142;28;20201;-72
2023/07/18 09:51:19;;;;;;;0.10;0.10;;;23.10;99.90;;;;;;5052601;28;20201;-72
2023/07/18 09:53:47;;;;;;;0.55;0.55;;;23.10;99.90;;;;;;5053352;28;20196;-72
2023/07/18 09:56:15;;;;;;;0.10;0.10;;;23.30;99.90;;;;;;5052754;28;20205;-72
2023/07/18 09:58:46;;;;;;;0.20;0.20;;;23.20;99.90;;;;;;5051866;28;20713;-72
2023/07/18 10:01:19;;;;;;;0.20;0.20;;;23.40;99.90;;;;;;5052901;28;20217;-73
2023/07/18 10:03:47;;;;;;;0.20;0.20;;;23.30;99.90;;;;;;5052704;28;20209;-73
2023/07/18 10:06:15;;;;;;;0.20;0.20;;;23.50;99.90;;;;;;5053328;28;20186;-73
2023/07/18 10:08:43;;;;;;;0.17;0.17;;;23.60;99.90;;;;;;5052805;28;20190;-73
2023/07/18 10:11:09;;;;;;;0.20;0.20;;;23.70;99.90;;;;;;5052915;28;20198;-74
2023/07/18 10:13:54;;;;;;;0.20;0.20;;;24.00;99.90;;;;;;5052534;28;20664;-73
2023/07/18 10:16:20;;;;;;;0.20;0.20;;;24.50;99.90;;;;;;5052545;28;20276;-72
2023/07/18 10:18:52;;;;;;;0.52;0.30;;;24.50;97.80;;;;;;5053064;28;20229;-71
2023/07/18 10:21:27;;;;;;;0.20;0.20;;;24.20;99.60;;;;;;5052871;28;20262;-73
2023/07/18 10:23:53;;;;;;;0.20;0.20;;;24.40;99.30;;;;;;5052967;28;20189;-72
2023/07/18 10:26:29;;;;;;;0.20;0.20;;;24.80;99.90;;;;;;5052395;28;20676;-73
2023/07/18 10:29:00;;;;;;;0.10;0.10;;;25.20;99.90;;;;;;5052699;28;20216;-73
2023/07/18 10:31:30;;;;;;;0.20;0.20;;;25.40;98.40;;;;;;5052481;28;20220;-73
2023/07/18 10:34:14;;;;;;;0.20;0.20;;;25.00;97.90;;;;;;5052894;28;20372;-73
2023/07/18 10:37:00;;;;;;;0.10;0.10;;;25.00;96.90;;;;;;5051527;28;20589;-74
2023/07/18 10:39:50;;;;;;;0.10;0.10;;;24.90;97.00;;;;;;5051905;28;20232;-72
2023/07/18 10:42:25;;;;;;;0.20;0.20;;;25.30;98.30;;;;;;5051234;28;20208;-73
2023/07/18 10:45:09;;;;;;;0.28;0.28;;;25.30;95.90;;;;;;5052455;28;20193;-73
2023/07/18 10:47:37;;;;;;;0.20;0.20;;;25.40;97.20;;;;;;5052050;28;20204;-73
2023/07/18 10:50:04;;;;;;;0.30;0.30;;;25.30;98.40;;;;;;5052403;28;20675;-72
2023/07/18 10:52:30;;;;;;;0.20;0.20;;;25.50;96.80;;;;;;5052637;28;20196;-72
2023/07/18 10:54:58;;;;;;;0.10;0.10;;;25.70;97.10;;;;;;5052362;28;20193;-72
2023/07/18 10:57:28;;;;;;;0.10;0.10;;;25.70;97.20;;;;;;5050362;28;20201;-72
2023/07/18 10:59:54;;;;;;;0.10;0.10;;;26.10;96.00;;;;;;5051800;28;20202;-72
2023/07/18 11:02:20;;;;;;;1.35;0.30;;;26.20;95.10;;;;;;5057690;28;20733;-73
2023/07/18 11:04:47;;;;;;;0.35;0.20;;;25.90;95.10;;;;;;5071938;28;20266;-72
2023/07/18 11:07:14;;;;;;;0.13;0.13;;;24.70;95.30;;;;;;5070587;28;20196;-72
2023/07/18 11:09:43;;;;;;;0.20;0.20;;;24.20;98.20;;;;;;5065548;28;20196;-73
2023/07/18 11:12:17;;;;;;;0.17;0.17;;;23.90;96.20;;;;;;5051674;28;20193;-73
2023/07/18 11:14:43;;;;;;;0.10;0.10;;;23.10;97.70;;;;;;5051875;28;20189;-72
2023/07/18 11:17:13;;;;;;;0.10;0.10;;;22.60;98.00;;;;;;5051778;28;20186;-72
2023/07/18 11:19:40;;;;;;;0.13;0.13;;;22.20;99.30;;;;;;5050148;28;20258;-73
2023/07/18 11:22:18;;;;;;;0.10;0.10;;;22.10;99.90;;;;;;5051744;28;20205;-72
2023/07/18 11:24:45;;;;;;;0.20;0.20;;;22.20;99.60;;;;;;5051772;28;20678;-72
2023/07/18 11:27:18;;;;;;;0.20;0.20;;;22.40;99.40;;;;;;5050951;28;20220;-73
2023/07/18 11:29:54;;;;;;;0.10;0.10;;;22.70;99.90;;;;;;5050946;28;20200;-73
2023/07/18 11:32:45;;;;;;;0.10;0.10;;;22.80;98.70;;;;;;5050700;28;20193;-72
2023/07/18 11:35:12;;;;;;;0.20;0.20;;;22.90;99.50;;;;;;5045183;28;20213;-72
2023/07/18 11:37:42;;;;;;;0.10;0.10;;;23.10;98.50;;;;;;5051312;28;20565;-72
2023/07/18 11:40:09;;;;;;;0.10;0.10;;;23.80;97.80;;;;;;5050765;28;20281;-73
2023/07/18 11:42:51;;;;;;;0.20;0.20;;;24.70;96.70;;;;;;5049683;28;20210;-72
2023/07/18 11:45:27;;;;;;;0.15;0.15;;;25.40;96.20;;;;;;5050583;28;20194;-73
2023/07/18 11:47:57;;;;;;;0.10;0.10;;;25.90;96.00;;;;;;5050616;28;20273;-73
2023/07/18 11:50:27;;;;;;;0.68;0.52;;;26.30;96.10;;;;;;5051035;28;20603;-73
2023/07/18 11:52:53;;;;;;;0.10;0.10;;;27.00;95.20;;;;;;5051109;28;20221;-74
2023/07/18 11:55:22;;;;;;;0.20;0.20;;;26.90;94.90;;;;;;5050941;28;20210;-72
2023/07/18 11:57:48;;;;;;;0.30;0.30;;;26.40;92.00;;;;;;5050437;28;20683;-73
2023/07/18 12:00:16;;;;;;;0.10;0.10;;;26.20;94.20;;;;;;5051384;28;20584;-72
2023/07/18 12:02:44;;;;;;;0.20;0.20;;;25.90;92.30;;;;;;5059039;28;20250;-72
2023/07/18 12:05:11;;;;;;;0.20;0.20;;;24.30;93.70;;;;;;5071328;28;20674;-73
2023/07/18 12:07:37;;;;;;;0.32;0.32;;;23.50;95.30;;;;;;5033233;28;20642;-72
2023/07/18 12:10:07;;;;;;;0.17;0.17;;;23.30;97.90;;;;;;5031320;28;20657;-73
2023/07/18 12:12:35;;;;;;;0.10;0.10;;;23.60;97.90;;;;;;5031085;28;20708;-73
2023/07/18 12:15:01;;;;;;;0.40;0.40;;;24.40;99.90;;;;;;5029798;28;20288;-72
2023/07/18 12:17:27;;;;;;;0.10;0.10;;;25.30;97.50;;;;;;5037544;28;20221;-73
2023/07/18 12:19:53;;;;;;;0.17;0.17;;;26.00;95.40;;;;;;5049650;28;20240;-72
2023/07/18 12:22:19;;;;;;;0.05;0.05;;;26.60;94.90;;;;;;5050654;28;20209;-72
2023/07/18 12:24:45;;;;;;;0.10;0.10;;;26.90;95.90;;;;;;5049399;28;20676;-72
2023/07/18 12:27:12;;;;;;;0.22;0.22;;;26.80;95.10;;;;;;5050870;28;20642;-72
2023/07/18 12:29:38;;;;;;;0.10;0.10;;;26.20;93.00;;;;;;5050837;28;20190;-73
2023/07/18 12:32:05;;;;;;;0.10;0.10;;;25.80;93.10;;;;;;5050247;28;20289;-72
2023/07/18 12:34:31;;;;;;;0.10;0.10;;;25.90;94.50;;;;;;5050482;28;20197;-72
2023/07/18 12:36:56;;;;;;;0.10;0.10;;;26.20;92.20;;;;;;5049469;28;20227;-72
2023/07/18 12:39:22;;;;;;;0.10;0.10;;;26.00;91.50;;;;;;5050431;28;20186;-72
2023/07/18 12:41:49;;;;;;;0.20;0.10;;;26.10;93.10;;;;;;5050774;28;20205;-72
2023/07/18 12:44:19;;;;;;;0.10;0.10;;;26.00;91.70;;;;;;5050590;28;20189;-72
2023/07/18 12:46:48;;;;;;;0.80;0.43;;;26.00;92.90;;;;;;5049327;28;20289;-74
2023/07/18 12:49:14;;;;;;;0.20;0.20;;;25.90;93.30;;;;;;5050586;28;20559;-72
2023/07/18 12:51:43;;;;;;;0.10;0.10;;;26.20;90.90;;;;;;5050379;28;20204;-71
2023/07/18 12:54:09;;;;;;;0.20;0.20;;;26.20;91.00;;;;;;5050489;28;20194;-72
2023/07/18 12:56:36;;;;;;;0.10;0.10;;;26.30;93.20;;;;;;5050602;28;20653;-72
2023/07/18 12:59:02;;;;;;;0.43;0.20;;;26.20;92.40;;;;;;5049450;28;20198;-73
2023/07/18 13:01:28;;;;;;;0.25;0.25;;;26.20;91.70;;;;;;5049870;28;20584;-72
2023/07/18 13:03:53;;;;;;;0.10;0.10;;;26.00;91.50;;;;;;5031828;28;20713;-72
2023/07/18 13:06:19;;;;;;;0.10;0.10;;;26.30;89.80;;;;;;5034209;28;20201;-72
2023/07/18 13:08:45;;;;;;;0.13;0.13;;;25.80;91.20;;;;;;5034294;28;20731;-73
2023/07/18 13:11:10;;;;;;;0.10;0.10;;;25.80;92.30;;;;;;5034226;28;20194;-73
2023/07/18 13:13:36;;;;;;;0.10;0.10;;;25.60;92.00;;;;;;5039391;28;20688;-72
2023/07/18 13:16:02;;;;;;;0.10;0.10;;;25.60;92.50;;;;;;5054232;28;20664;-73
2023/07/18 13:18:28;;;;;;;0.10;0.10;;;25.90;88.60;;;;;;5053817;28;20225;-72
2023/07/18 13:20:53;;;;;;;0.10;0.10;;;25.60;91.80;;;;;;5053895;28;20224;-72
2023/07/18 13:23:20;;;;;;;0.10;0.10;;;25.10;91.30;;;;;;5053728;28;20190;-72
2023/07/18 13:25:46;;;;;;;0.10;0.10;;;24.90;91.20;;;;;;5053816;28;20193;-73
2023/07/18 13:28:12;;;;;;;0.20;0.20;;;25.00;93.00;;;;;;5053927;28;20186;-72
2023/07/18 13:30:39;;;;;;;0.10;0.10;;;25.20;91.50;;;;;;5045595;28;20194;-72
2023/07/18 13:33:05;;;;;;;0.20;0.20;;;25.00;91.80;;;;;;5033695;28;20688;-71
2023/07/18 13:35:30;;;;;;;0.10;0.10;;;25.30;91.50;;;;;;5033563;28;20202;-72
2023/07/18 13:37:56;;;;;;;0.10;0.10;;;25.40;92.00;;;;;;5033860;28;20669;-72
2023/07/18 13:40:22;;;;;;;0.10;0.10;;;25.50;92.10;;;;;;5033320;28;20229;-72
2023/07/18 13:42:47;;;;;;;0.10;0.10;;;25.70;91.90;;;;;;5033699;28;20206;-72
2023/07/18 13:45:13;;;;;;;0.10;0.10;;;25.70;91.80;;;;;;5033613;28;20174;-72
2023/07/18 13:47:39;;;;;;;0.13;0.13;;;25.30;92.10;;;;;;5041847;28;20687;-72
2023/07/18 13:50:05;;;;;;;0.10;0.10;;;25.10;91.70;;;;;;5052932;28;20199;-73
2023/07/18 13:52:31;;;;;;;1.77;0.30;;;24.90;91.70;;;;;;5053441;28;20200;-73
2023/07/18 13:54:57;;;;;;;0.13;0.13;;;24.90;93.00;;;;;;5053372;28;20672;-73
2023/07/18 13:57:23;;;;;;;0.15;0.15;;;24.80;91.70;;;;;;5052910;28;20196;-72